Alaska — SYDS — position and weather

sailwx.info

Track history (hours):
 
Tides and Currents Weather Stations Pressure Air Temp Water Temp Dewpoint Dewpoint Depression Visibility Wind Speed Wind Dir Waves Ship Positions

Alaska

Last reported at 2015-Apr-26 07:33 UTC. Time now 2015-Apr-28 03:51 UTC.
Position N 37°33' W 009°21'.

Length 274 m; draft 9.4 m.

Type: Tanker. MMSI: 240472000.

Date/timePositionNaut miles runAvg speedWind from/ knotsBaromVisibWave heightAir tempDewpointWater temp
2015-Apr-26 07:33N 37°33' W 009°21'1212.3
2015-Apr-26 06:33N 37°41' W 009°10'1212.3
2015-Apr-26 05:33N 37°50' W 008°59'8 8.2
2015-Apr-26 04:33N 37°57' W 008°53'0 0.0
2015-Apr-26 03:33N 37°57' W 008°53'0 0.0
2015-Apr-26 02:33N 37°57' W 008°53'0 0.0
2015-Apr-26 01:33N 37°57' W 008°53'0 0.0
2015-Apr-26 00:33N 37°57' W 008°53'0 0.0
2015-Apr-25 23:33N 37°57' W 008°53'0 0.0
2015-Apr-25 22:33N 37°57' W 008°53'0 0.0
2015-Apr-25 21:33N 37°57' W 008°53'0 0.0
2015-Apr-25 20:33N 37°57' W 008°53'0 0.0
2015-Apr-25 19:33N 37°57' W 008°53'0 0.0
2015-Apr-25 18:33N 37°57' W 008°53'0 0.0
2015-Apr-25 17:33N 37°57' W 008°53'0 0.0
2015-Apr-25 16:33N 37°57' W 008°53'0 0.0
2015-Apr-25 15:33N 37°57' W 008°53'0 0.0
2015-Apr-25 14:33N 37°57' W 008°53'0 0.0
2015-Apr-25 13:33N 37°57' W 008°53'0 0.0
2015-Apr-25 12:33N 37°57' W 008°53'0 0.0
2015-Apr-25 11:33N 37°57' W 008°53'0 0.0
2015-Apr-25 10:33N 37°57' W 008°53'0 0.0
2015-Apr-25 09:33N 37°57' W 008°53'0 0.0
2015-Apr-25 08:33N 37°57' W 008°53'0 0.0
2015-Apr-25 07:33N 37°57' W 008°53'0 0.0
2015-Apr-25 06:33N 37°57' W 008°53'0 0.0
2015-Apr-25 05:33N 37°57' W 008°53'0 0.0
2015-Apr-25 04:33N 37°57' W 008°53'0 0.0
2015-Apr-25 03:33N 37°57' W 008°53'0 0.0
2015-Apr-25 02:33N 37°57' W 008°53'0 0.0
2015-Apr-25 01:33N 37°57' W 008°53'0 0.0
2015-Apr-25 00:33N 37°57' W 008°53'0 0.0
2015-Apr-24 23:33N 37°57' W 008°53'0 0.0
2015-Apr-24 22:33N 37°57' W 008°53'0 0.0
2015-Apr-24 21:33N 37°57' W 008°53'0 0.0
2015-Apr-24 20:32N 37°57' W 008°53'0 0.0
2015-Apr-24 19:33N 37°57' W 008°53'0 0.0
2015-Apr-24 18:33N 37°57' W 008°53'0 0.0
2015-Apr-24 17:33N 37°57' W 008°53'0 0.0
2015-Apr-24 16:33N 37°57' W 008°53'0 0.0
2015-Apr-24 15:33N 37°57' W 008°53'0 0.0
2015-Apr-24 14:33N 37°57' W 008°53'0 0.0
2015-Apr-24 13:33N 37°57' W 008°53'0 0.0
2015-Apr-24 12:33N 37°57' W 008°53'0 0.0
2015-Apr-24 11:33N 37°57' W 008°53'0 0.0
2015-Apr-24 10:33N 37°57' W 008°53'0 0.5
2015-Apr-24 09:33N 37°56' W 008°53'5 5.4
2015-Apr-24 08:33N 37°51' W 008°55'7 7.4
2015-Apr-24 07:33N 37°44' W 008°59'6 6.3
2015-Apr-24 06:33N 37°39' W 009°02'1111.0
2015-Apr-24 05:33N 37°29' W 009°09'1212.1
2015-Apr-24 04:33N 37°18' W 009°15'1611.9
2015-Apr-24 03:14N 37°04' W 009°25'711.0
2015-Apr-24 02:33N 36°57' W 009°26'1111.2
2015-Apr-24 01:32N 36°47' W 009°20'1111.0
2015-Apr-24 00:33N 36°40' W 009°09'1211.6
2015-Apr-23 23:32N 36°37' W 008°55'1111.6
2015-Apr-23 22:33N 36°34' W 008°41'7 6.9
2015-Apr-23 21:33N 36°33' W 008°33'5 4.9
2015-Apr-23 20:33N 36°31' W 008°27'5 5.1
2015-Apr-23 19:33N 36°30' W 008°21'7 6.8
2015-Apr-23 18:33N 36°28' W 008°13'1111.5
2015-Apr-23 17:33N 36°26' W 007°59'1211.8
2015-Apr-23 16:33N 36°23' W 007°45'1212.2
2015-Apr-23 15:33N 36°18' W 007°31'1212.2
2015-Apr-23 14:33N 36°15' W 007°16'8311.7
2015-Apr-23 07:27N 35°58' W 005°35'1010.9
2015-Apr-23 06:34N 36°01' W 005°24'1111.4
2015-Apr-23 05:34N 36°03' W 005°10'38712.9
2015-Apr-21 23:30N 37°03' E 002°46'1412.4
2015-Apr-21 22:24N 37°05' E 003°03'1012.2
2015-Apr-21 21:33N 37°06' E 003°16'4212.6
2015-Apr-21 18:11N 37°12' E 004°08'47712.6
2015-Apr-20 04:26N 36°26' E 014°01'1313.2
2015-Apr-20 03:28N 36°21' E 014°16'1212.8
2015-Apr-20 02:33N 36°18' E 014°30'4313.2
2015-Apr-19 23:20N 36°05' E 015°20'64212.9
2015-Apr-17 21:33N 33°01' E 027°47'11912.6
2015-Apr-17 12:05N 32°27' E 030°03'812.8
2015-Apr-17 11:30N 32°25' E 030°11'1212.6
2015-Apr-17 10:33N 32°21' E 030°25'1212.5
2015-Apr-17 09:34N 32°18' E 030°39'1312.9
2015-Apr-17 08:33N 32°14' E 030°53'1713.0
2015-Apr-17 07:15N 32°09' E 031°13'912.5
2015-Apr-17 06:33N 32°06' E 031°22'1612.8
2015-Apr-17 05:20N 31°57' E 031°38'1312.9
2015-Apr-17 04:19N 31°51' E 031°51'1012.9
2015-Apr-17 03:34N 31°44' E 031°60'1312.6
2015-Apr-17 02:33N 31°35' E 032°10'1212.4
2015-Apr-17 01:33N 31°29' E 032°22'  
Track history (hours):
 
Tides and Currents Weather Stations Pressure Air Temp Water Temp Dewpoint Dewpoint Depression Visibility Wind Speed Wind Dir Waves Ship Positions

Alaska

Last reported at 2015-Apr-26 07:33 UTC. Time now 2015-Apr-28 03:51 UTC.
Position N 37°33' W 009°21'.

Length 274 m; draft 9.4 m.

Type: Tanker. MMSI: 240472000.

Date/timePositionNaut miles runAvg speedWind from/ knotsBaromVisibWave heightAir tempDewpointWater temp
2015-Apr-26 07:33N 37°33' W 009°21'1212.3
2015-Apr-26 06:33N 37°41' W 009°10'1212.3
2015-Apr-26 05:33N 37°50' W 008°59'8 8.2
2015-Apr-26 04:33N 37°57' W 008°53'0 0.0
2015-Apr-26 03:33N 37°57' W 008°53'0 0.0
2015-Apr-26 02:33N 37°57' W 008°53'0 0.0
2015-Apr-26 01:33N 37°57' W 008°53'0 0.0
2015-Apr-26 00:33N 37°57' W 008°53'0 0.0
2015-Apr-25 23:33N 37°57' W 008°53'0 0.0
2015-Apr-25 22:33N 37°57' W 008°53'0 0.0
2015-Apr-25 21:33N 37°57' W 008°53'0 0.0
2015-Apr-25 20:33N 37°57' W 008°53'0 0.0
2015-Apr-25 19:33N 37°57' W 008°53'0 0.0
2015-Apr-25 18:33N 37°57' W 008°53'0 0.0
2015-Apr-25 17:33N 37°57' W 008°53'0 0.0
2015-Apr-25 16:33N 37°57' W 008°53'0 0.0
2015-Apr-25 15:33N 37°57' W 008°53'0 0.0
2015-Apr-25 14:33N 37°57' W 008°53'0 0.0
2015-Apr-25 13:33N 37°57' W 008°53'0 0.0
2015-Apr-25 12:33N 37°57' W 008°53'0 0.0
2015-Apr-25 11:33N 37°57' W 008°53'0 0.0
2015-Apr-25 10:33N 37°57' W 008°53'0 0.0
2015-Apr-25 09:33N 37°57' W 008°53'0 0.0
2015-Apr-25 08:33N 37°57' W 008°53'0 0.0
2015-Apr-25 07:33N 37°57' W 008°53'0 0.0
2015-Apr-25 06:33N 37°57' W 008°53'0 0.0
2015-Apr-25 05:33N 37°57' W 008°53'0 0.0
2015-Apr-25 04:33N 37°57' W 008°53'0 0.0
2015-Apr-25 03:33N 37°57' W 008°53'0 0.0
2015-Apr-25 02:33N 37°57' W 008°53'0 0.0
2015-Apr-25 01:33N 37°57' W 008°53'0 0.0
2015-Apr-25 00:33N 37°57' W 008°53'0 0.0
2015-Apr-24 23:33N 37°57' W 008°53'0 0.0
2015-Apr-24 22:33N 37°57' W 008°53'0 0.0
2015-Apr-24 21:33N 37°57' W 008°53'0 0.0
2015-Apr-24 20:32N 37°57' W 008°53'0 0.0
2015-Apr-24 19:33N 37°57' W 008°53'0 0.0
2015-Apr-24 18:33N 37°57' W 008°53'0 0.0
2015-Apr-24 17:33N 37°57' W 008°53'0 0.0
2015-Apr-24 16:33N 37°57' W 008°53'0 0.0
2015-Apr-24 15:33N 37°57' W 008°53'0 0.0
2015-Apr-24 14:33N 37°57' W 008°53'0 0.0
2015-Apr-24 13:33N 37°57' W 008°53'0 0.0
2015-Apr-24 12:33N 37°57' W 008°53'0 0.0
2015-Apr-24 11:33N 37°57' W 008°53'0 0.0
2015-Apr-24 10:33N 37°57' W 008°53'0 0.5
2015-Apr-24 09:33N 37°56' W 008°53'5 5.4
2015-Apr-24 08:33N 37°51' W 008°55'7 7.4
2015-Apr-24 07:33N 37°44' W 008°59'6 6.3
2015-Apr-24 06:33N 37°39' W 009°02'1111.0
2015-Apr-24 05:33N 37°29' W 009°09'1212.1
2015-Apr-24 04:33N 37°18' W 009°15'1611.9
2015-Apr-24 03:14N 37°04' W 009°25'711.0
2015-Apr-24 02:33N 36°57' W 009°26'1111.2
2015-Apr-24 01:32N 36°47' W 009°20'1111.0
2015-Apr-24 00:33N 36°40' W 009°09'1211.6
2015-Apr-23 23:32N 36°37' W 008°55'1111.6
2015-Apr-23 22:33N 36°34' W 008°41'7 6.9
2015-Apr-23 21:33N 36°33' W 008°33'5 4.9
2015-Apr-23 20:33N 36°31' W 008°27'5 5.1
2015-Apr-23 19:33N 36°30' W 008°21'7 6.8
2015-Apr-23 18:33N 36°28' W 008°13'1111.5
2015-Apr-23 17:33N 36°26' W 007°59'1211.8
2015-Apr-23 16:33N 36°23' W 007°45'1212.2
2015-Apr-23 15:33N 36°18' W 007°31'1212.2
2015-Apr-23 14:33N 36°15' W 007°16'8311.7
2015-Apr-23 07:27N 35°58' W 005°35'1010.9
2015-Apr-23 06:34N 36°01' W 005°24'1111.4
2015-Apr-23 05:34N 36°03' W 005°10'38712.9
2015-Apr-21 23:30N 37°03' E 002°46'1412.4
2015-Apr-21 22:24N 37°05' E 003°03'1012.2
2015-Apr-21 21:33N 37°06' E 003°16'4212.6
2015-Apr-21 18:11N 37°12' E 004°08'47712.6
2015-Apr-20 04:26N 36°26' E 014°01'1313.2
2015-Apr-20 03:28N 36°21' E 014°16'1212.8
2015-Apr-20 02:33N 36°18' E 014°30'4313.2
2015-Apr-19 23:20N 36°05' E 015°20'64212.9
2015-Apr-17 21:33N 33°01' E 027°47'11912.6
2015-Apr-17 12:05N 32°27' E 030°03'812.8
2015-Apr-17 11:30N 32°25' E 030°11'1212.6
2015-Apr-17 10:33N 32°21' E 030°25'1212.5
2015-Apr-17 09:34N 32°18' E 030°39'1312.9
2015-Apr-17 08:33N 32°14' E 030°53'1713.0
2015-Apr-17 07:15N 32°09' E 031°13'912.5
2015-Apr-17 06:33N 32°06' E 031°22'1612.8
2015-Apr-17 05:20N 31°57' E 031°38'1312.9
2015-Apr-17 04:19N 31°51' E 031°51'1012.9
2015-Apr-17 03:34N 31°44' E 031°60'1312.6
2015-Apr-17 02:33N 31°35' E 032°10'1212.4
2015-Apr-17 01:33N 31°29' E 032°22'  

Dump ship's entire track history